California, Missouri
Current Conditions -  °F | °C
As of 2:15 PM on Thursday 23 Oct 2014 (Local Time) from KVER Reporting Station
Overcast Overcast  
Wind Chill: 65°   Ceiling: 4200
Heat Index: 65°   Visibility: 10mi
Dew Point: 52°   Wind: 6mph
Humidity: 64%   Direction: 190°S
Pressure: 30.08"   Gusts: NA
Location:  38.63°N, 92.57°W
Report Text: KVER 231915Z AUTO 19005KT 10SM BKN042 OVC085 18/11 A3008 RMK AO2 T01830113
Loading
Personal Weather Stations






























Interactive Weather Map
Tropical Storm Tracking
New forecast layout! Learn more

10-Day Weather Forecast

Advertisements
Track Severe Weather on mobile